sensor_id;sensor_type;location;lat;lon;timestamp;temperature;humidity
53208;DHT22;39093;52.788;6.940;2024-03-23T00:53:01;7.20;99.90
53208;DHT22;39093;52.788;6.940;2024-03-23T00:55:27;7.20;99.90
53208;DHT22;39093;52.788;6.940;2024-03-23T00:57:53;7.20;99.90
53208;DHT22;39093;52.788;6.940;2024-03-23T01:00:19;7.20;99.90
53208;DHT22;39093;52.788;6.940;2024-03-23T01:02:45;7.20;99.90
53208;DHT22;39093;52.788;6.940;2024-03-23T01:05:11;7.10;99.90
53208;DHT22;39093;52.788;6.940;2024-03-23T01:07:37;7.10;99.90
53208;DHT22;39093;52.788;6.940;2024-03-23T01:10:03;7.20;99.90
53208;DHT22;39093;52.788;6.940;2024-03-23T01:12:29;7.10;99.90
53208;DHT22;39093;52.788;6.940;2024-03-23T01:14:55;7.10;99.90
53208;DHT22;39093;52.788;6.940;2024-03-23T01:17:21;7.10;99.90
53208;DHT22;39093;52.788;6.940;2024-03-23T01:19:47;7.10;99.90
53208;DHT22;39093;52.788;6.940;2024-03-23T01:22:13;7.00;99.90
53208;DHT22;39093;52.788;6.940;2024-03-23T01:24:39;7.10;99.90
53208;DHT22;39093;52.788;6.940;2024-03-23T01:27:05;7.00;99.90
53208;DHT22;39093;52.788;6.940;2024-03-23T01:29:31;7.00;99.90
53208;DHT22;39093;52.788;6.940;2024-03-23T01:31:57;7.00;99.90
53208;DHT22;39093;52.788;6.940;2024-03-23T01:34:23;7.00;99.90
53208;DHT22;39093;52.788;6.940;2024-03-23T01:36:50;6.90;99.90
53208;DHT22;39093;52.788;6.940;2024-03-23T01:39:16;7.00;99.90
53208;DHT22;39093;52.788;6.940;2024-03-23T01:41:42;7.00;99.90
53208;DHT22;39093;52.788;6.940;2024-03-23T01:44:09;6.90;99.90
53208;DHT22;39093;52.788;6.940;2024-03-23T01:46:36;7.00;99.90
53208;DHT22;39093;52.788;6.940;2024-03-23T01:49:06;7.00;99.90
53208;DHT22;39093;52.788;6.940;2024-03-23T01:51:32;6.90;99.90
53208;DHT22;39093;52.788;6.940;2024-03-23T01:54:00;6.90;99.90
53208;DHT22;39093;52.788;6.940;2024-03-23T01:56:29;6.90;99.90
53208;DHT22;39093;52.788;6.940;2024-03-23T01:58:56;6.90;99.90
53208;DHT22;39093;52.788;6.940;2024-03-23T02:01:22;6.80;99.90
53208;DHT22;39093;52.788;6.940;2024-03-23T02:03:48;6.80;99.90
53208;DHT22;39093;52.788;6.940;2024-03-23T02:06:14;6.70;99.90
53208;DHT22;39093;52.788;6.940;2024-03-23T02:08:40;6.70;99.90
53208;DHT22;39093;52.788;6.940;2024-03-23T02:11:06;6.70;99.90
53208;DHT22;39093;52.788;6.940;2024-03-23T02:13:32;6.70;99.90
53208;DHT22;39093;52.788;6.940;2024-03-23T02:15:58;6.60;99.90
53208;DHT22;39093;52.788;6.940;2024-03-23T02:18:24;6.60;99.90
53208;DHT22;39093;52.788;6.940;2024-03-23T02:20:50;6.50;99.90
53208;DHT22;39093;52.788;6.940;2024-03-23T02:23:17;6.50;99.90
53208;DHT22;39093;52.788;6.940;2024-03-23T02:25:46;6.50;99.90
53208;DHT22;39093;52.788;6.940;2024-03-23T02:28:12;6.40;99.90
53208;DHT22;39093;52.788;6.940;2024-03-23T02:30:38;6.40;99.90
53208;DHT22;39093;52.788;6.940;2024-03-23T02:33:04;6.40;99.90
53208;DHT22;39093;52.788;6.940;2024-03-23T02:35:30;6.30;99.90
53208;DHT22;39093;52.788;6.940;2024-03-23T02:37:56;6.30;99.90
53208;DHT22;39093;52.788;6.940;2024-03-23T02:40:23;6.30;99.90
53208;DHT22;39093;52.788;6.940;2024-03-23T02:42:50;6.20;99.90
53208;DHT22;39093;52.788;6.940;2024-03-23T02:45:16;6.20;99.90
53208;DHT22;39093;52.788;6.940;2024-03-23T02:47:42;6.20;99.90
53208;DHT22;39093;52.788;6.940;2024-03-23T02:50:08;6.20;99.90
53208;DHT22;39093;52.788;6.940;2024-03-23T02:52:35;6.10;99.90
53208;DHT22;39093;52.788;6.940;2024-03-23T02:55:02;6.10;99.90
53208;DHT22;39093;52.788;6.940;2024-03-23T02:57:28;6.10;99.90
53208;DHT22;39093;52.788;6.940;2024-03-23T02:59:54;6.00;99.90
53208;DHT22;39093;52.788;6.940;2024-03-23T03:02:20;6.00;99.90
53208;DHT22;39093;52.788;6.940;2024-03-23T03:04:47;6.00;99.90
53208;DHT22;39093;52.788;6.940;2024-03-23T03:07:14;5.90;99.90
53208;DHT22;39093;52.788;6.940;2024-03-23T03:09:40;5.90;99.90
53208;DHT22;39093;52.788;6.940;2024-03-23T03:12:06;5.90;99.90
53208;DHT22;39093;52.788;6.940;2024-03-23T03:14:32;5.80;99.90
53208;DHT22;39093;52.788;6.940;2024-03-23T03:16:58;5.90;99.90
53208;DHT22;39093;52.788;6.940;2024-03-23T03:19:24;5.80;99.90
53208;DHT22;39093;52.788;6.940;2024-03-23T03:21:50;5.80;99.90
53208;DHT22;39093;52.788;6.940;2024-03-23T03:24:16;5.80;99.90
53208;DHT22;39093;52.788;6.940;2024-03-23T03:26:42;5.80;99.90
53208;DHT22;39093;52.788;6.940;2024-03-23T03:29:09;5.80;99.90
53208;DHT22;39093;52.788;6.940;2024-03-23T03:31:35;5.70;99.90
53208;DHT22;39093;52.788;6.940;2024-03-23T03:34:00;5.70;99.90
53208;DHT22;39093;52.788;6.940;2024-03-23T03:36:26;5.60;99.90
53208;DHT22;39093;52.788;6.940;2024-03-23T03:38:52;5.60;99.90
53208;DHT22;39093;52.788;6.940;2024-03-23T03:41:19;5.60;99.90
53208;DHT22;39093;52.788;6.940;2024-03-23T03:43:45;5.60;99.90
53208;DHT22;39093;52.788;6.940;2024-03-23T03:46:10;5.60;99.90
53208;DHT22;39093;52.788;6.940;2024-03-23T03:48:37;5.60;99.90
53208;DHT22;39093;52.788;6.940;2024-03-23T03:51:03;5.50;99.90
53208;DHT22;39093;52.788;6.940;2024-03-23T03:53:29;5.50;99.90
53208;DHT22;39093;52.788;6.940;2024-03-23T03:55:56;5.50;99.90
53208;DHT22;39093;52.788;6.940;2024-03-23T03:58:22;5.40;99.90
53208;DHT22;39093;52.788;6.940;2024-03-23T04:00:48;5.40;99.90
53208;DHT22;39093;52.788;6.940;2024-03-23T04:03:14;5.40;99.90
53208;DHT22;39093;52.788;6.940;2024-03-23T04:05:40;5.40;99.90
53208;DHT22;39093;52.788;6.940;2024-03-23T04:08:08;5.40;99.90
53208;DHT22;39093;52.788;6.940;2024-03-23T04:10:34;5.40;99.90
53208;DHT22;39093;52.788;6.940;2024-03-23T04:13:00;5.40;99.90
53208;DHT22;39093;52.788;6.940;2024-03-23T04:15:26;5.40;99.90
53208;DHT22;39093;52.788;6.940;2024-03-23T04:17:52;5.30;99.90
53208;DHT22;39093;52.788;6.940;2024-03-23T04:20:18;5.30;99.90
53208;DHT22;39093;52.788;6.940;2024-03-23T04:22:44;5.30;99.90
53208;DHT22;39093;52.788;6.940;2024-03-23T04:25:10;5.20;99.90
53208;DHT22;39093;52.788;6.940;2024-03-23T04:27:37;5.20;99.90
53208;DHT22;39093;52.788;6.940;2024-03-23T04:30:03;5.20;99.90
53208;DHT22;39093;52.788;6.940;2024-03-23T04:32:35;5.20;99.90
53208;DHT22;39093;52.788;6.940;2024-03-23T04:35:01;5.30;99.90
53208;DHT22;39093;52.788;6.940;2024-03-23T04:37:28;5.20;99.90
53208;DHT22;39093;52.788;6.940;2024-03-23T04:39:54;5.10;99.90
53208;DHT22;39093;52.788;6.940;2024-03-23T04:42:20;5.10;99.90
53208;DHT22;39093;52.788;6.940;2024-03-23T04:44:46;5.10;99.90
53208;DHT22;39093;52.788;6.940;2024-03-23T04:47:12;5.10;99.90
53208;DHT22;39093;52.788;6.940;2024-03-23T04:49:38;5.10;99.90
53208;DHT22;39093;52.788;6.940;2024-03-23T04:52:04;5.10;99.90
53208;DHT22;39093;52.788;6.940;2024-03-23T04:54:30;5.00;99.90
53208;DHT22;39093;52.788;6.940;2024-03-23T04:56:58;5.00;99.90
53208;DHT22;39093;52.788;6.940;2024-03-23T04:59:24;5.30;99.90
53208;DHT22;39093;52.788;6.940;2024-03-23T05:01:50;5.00;99.90
53208;DHT22;39093;52.788;6.940;2024-03-23T05:04:16;4.90;99.90
53208;DHT22;39093;52.788;6.940;2024-03-23T05:06:41;5.00;99.90
53208;DHT22;39093;52.788;6.940;2024-03-23T05:09:07;5.00;99.90
53208;DHT22;39093;52.788;6.940;2024-03-23T05:11:38;5.00;99.90
53208;DHT22;39093;52.788;6.940;2024-03-23T05:14:04;4.90;99.90
53208;DHT22;39093;52.788;6.940;2024-03-23T05:16:30;4.90;99.90
53208;DHT22;39093;52.788;6.940;2024-03-23T05:18:56;4.90;99.90
53208;DHT22;39093;52.788;6.940;2024-03-23T05:21:22;4.90;99.90
53208;DHT22;39093;52.788;6.940;2024-03-23T05:23:48;4.80;99.90
53208;DHT22;39093;52.788;6.940;2024-03-23T05:26:14;4.80;99.90
53208;DHT22;39093;52.788;6.940;2024-03-23T05:28:40;4.80;99.90
53208;DHT22;39093;52.788;6.940;2024-03-23T05:31:06;4.80;99.90
53208;DHT22;39093;52.788;6.940;2024-03-23T05:33:32;4.80;99.90
53208;DHT22;39093;52.788;6.940;2024-03-23T05:36:00;4.80;99.90
53208;DHT22;39093;52.788;6.940;2024-03-23T05:38:26;4.90;99.90
53208;DHT22;39093;52.788;6.940;2024-03-23T05:40:59;4.80;99.90
53208;DHT22;39093;52.788;6.940;2024-03-23T05:43:26;4.80;99.90
53208;DHT22;39093;52.788;6.940;2024-03-23T05:45:58;4.80;99.90
53208;DHT22;39093;52.788;6.940;2024-03-23T05:48:25;4.80;99.90
53208;DHT22;39093;52.788;6.940;2024-03-23T05:50:51;4.80;99.90
53208;DHT22;39093;52.788;6.940;2024-03-23T05:53:18;4.80;99.90
53208;DHT22;39093;52.788;6.940;2024-03-23T05:55:46;4.80;99.90
53208;DHT22;39093;52.788;6.940;2024-03-23T05:58:15;4.70;99.90
53208;DHT22;39093;52.788;6.940;2024-03-23T06:00:42;4.70;99.90
53208;DHT22;39093;52.788;6.940;2024-03-23T06:03:08;4.70;99.90
53208;DHT22;39093;52.788;6.940;2024-03-23T06:05:34;4.70;99.90
53208;DHT22;39093;52.788;6.940;2024-03-23T06:08:00;4.70;99.90
53208;DHT22;39093;52.788;6.940;2024-03-23T06:10:26;4.70;99.90
53208;DHT22;39093;52.788;6.940;2024-03-23T06:12:52;4.70;99.90
53208;DHT22;39093;52.788;6.940;2024-03-23T06:15:19;4.80;99.90
53208;DHT22;39093;52.788;6.940;2024-03-23T06:17:45;4.80;99.90
53208;DHT22;39093;52.788;6.940;2024-03-23T06:20:12;4.90;99.90
53208;DHT22;39093;52.788;6.940;2024-03-23T06:22:38;4.80;99.90
53208;DHT22;39093;52.788;6.940;2024-03-23T06:25:05;4.90;99.90
53208;DHT22;39093;52.788;6.940;2024-03-23T06:27:31;5.00;99.90
53208;DHT22;39093;52.788;6.940;2024-03-23T06:30:01;5.00;99.90
53208;DHT22;39093;52.788;6.940;2024-03-23T06:32:28;5.00;99.90
53208;DHT22;39093;52.788;6.940;2024-03-23T06:34:55;5.10;99.90
53208;DHT22;39093;52.788;6.940;2024-03-23T06:37:21;5.10;99.90
53208;DHT22;39093;52.788;6.940;2024-03-23T06:39:46;5.10;99.90
53208;DHT22;39093;52.788;6.940;2024-03-23T06:42:12;5.10;99.90
53208;DHT22;39093;52.788;6.940;2024-03-23T06:44:39;5.10;99.90
53208;DHT22;39093;52.788;6.940;2024-03-23T06:47:05;5.20;99.90
53208;DHT22;39093;52.788;6.940;2024-03-23T06:49:31;5.30;99.90
53208;DHT22;39093;52.788;6.940;2024-03-23T06:51:57;5.40;99.90
53208;DHT22;39093;52.788;6.940;2024-03-23T06:54:24;5.60;99.90
53208;DHT22;39093;52.788;6.940;2024-03-23T06:56:50;5.70;99.90
53208;DHT22;39093;52.788;6.940;2024-03-23T06:59:16;5.90;99.90
53208;DHT22;39093;52.788;6.940;2024-03-23T07:01:42;5.90;99.90
53208;DHT22;39093;52.788;6.940;2024-03-23T07:04:08;6.00;99.90
53208;DHT22;39093;52.788;6.940;2024-03-23T07:06:34;6.00;99.90
53208;DHT22;39093;52.788;6.940;2024-03-23T07:09:00;5.90;99.90
53208;DHT22;39093;52.788;6.940;2024-03-23T07:11:26;6.00;99.90
53208;DHT22;39093;52.788;6.940;2024-03-23T07:13:53;5.90;99.90
53208;DHT22;39093;52.788;6.940;2024-03-23T07:16:22;6.00;99.90
53208;DHT22;39093;52.788;6.940;2024-03-23T07:18:50;6.00;99.90
53208;DHT22;39093;52.788;6.940;2024-03-23T07:21:16;6.00;99.90
53208;DHT22;39093;52.788;6.940;2024-03-23T07:23:42;5.90;99.90
53208;DHT22;39093;52.788;6.940;2024-03-23T07:26:11;6.00;99.90
53208;DHT22;39093;52.788;6.940;2024-03-23T07:28:37;5.90;99.90
53208;DHT22;39093;52.788;6.940;2024-03-23T07:31:08;5.80;99.90
53208;DHT22;39093;52.788;6.940;2024-03-23T07:33:47;5.80;99.90
53208;DHT22;39093;52.788;6.940;2024-03-23T07:36:13;5.90;99.90
53208;DHT22;39093;52.788;6.940;2024-03-23T07:38:42;6.00;99.90
53208;DHT22;39093;52.788;6.940;2024-03-23T07:41:12;6.30;99.90
53208;DHT22;39093;52.788;6.940;2024-03-23T07:43:40;6.20;99.90
53208;DHT22;39093;52.788;6.940;2024-03-23T07:46:06;6.30;99.90
53208;DHT22;39093;52.788;6.940;2024-03-23T07:48:32;6.40;99.90
53208;DHT22;39093;52.788;6.940;2024-03-23T07:51:03;6.40;99.90
53208;DHT22;39093;52.788;6.940;2024-03-23T07:53:30;6.40;99.90
53208;DHT22;39093;52.788;6.940;2024-03-23T07:56:01;6.50;99.90
53208;DHT22;39093;52.788;6.940;2024-03-23T07:58:27;6.60;99.90
53208;DHT22;39093;52.788;6.940;2024-03-23T08:00:54;6.60;99.90
53208;DHT22;39093;52.788;6.940;2024-03-23T08:03:21;6.60;99.90
53208;DHT22;39093;52.788;6.940;2024-03-23T08:05:47;6.80;99.90
53208;DHT22;39093;52.788;6.940;2024-03-23T08:08:13;7.00;99.90
53208;DHT22;39093;52.788;6.940;2024-03-23T08:10:52;7.10;99.90
53208;DHT22;39093;52.788;6.940;2024-03-23T08:13:21;7.10;99.90
53208;DHT22;39093;52.788;6.940;2024-03-23T08:15:47;7.00;99.90
53208;DHT22;39093;52.788;6.940;2024-03-23T08:18:13;6.80;99.90
53208;DHT22;39093;52.788;6.940;2024-03-23T08:20:41;6.70;99.90
53208;DHT22;39093;52.788;6.940;2024-03-23T08:23:07;6.70;99.90
53208;DHT22;39093;52.788;6.940;2024-03-23T08:25:34;6.60;99.90
53208;DHT22;39093;52.788;6.940;2024-03-23T08:28:00;6.60;99.90
53208;DHT22;39093;52.788;6.940;2024-03-23T08:30:27;6.40;99.90
53208;DHT22;39093;52.788;6.940;2024-03-23T08:32:53;6.40;99.90
53208;DHT22;39093;52.788;6.940;2024-03-23T08:35:19;6.40;99.90
53208;DHT22;39093;52.788;6.940;2024-03-23T08:37:45;6.30;99.90
53208;DHT22;39093;52.788;6.940;2024-03-23T08:40:12;6.30;99.90
53208;DHT22;39093;52.788;6.940;2024-03-23T08:42:38;6.30;99.90
53208;DHT22;39093;52.788;6.940;2024-03-23T08:45:04;6.30;99.90
53208;DHT22;39093;52.788;6.940;2024-03-23T08:47:36;6.30;99.90
53208;DHT22;39093;52.788;6.940;2024-03-23T08:50:02;6.30;99.90
53208;DHT22;39093;52.788;6.940;2024-03-23T08:52:28;6.30;99.90
53208;DHT22;39093;52.788;6.940;2024-03-23T08:54:55;6.40;99.90
53208;DHT22;39093;52.788;6.940;2024-03-23T08:57:23;6.50;99.90
53208;DHT22;39093;52.788;6.940;2024-03-23T08:59:50;6.60;99.90
53208;DHT22;39093;52.788;6.940;2024-03-23T09:02:16;6.80;99.90
53208;DHT22;39093;52.788;6.940;2024-03-23T09:04:41;7.00;99.90
53208;DHT22;39093;52.788;6.940;2024-03-23T09:07:07;7.00;99.90
53208;DHT22;39093;52.788;6.940;2024-03-23T09:09:33;7.10;99.90
53208;DHT22;39093;52.788;6.940;2024-03-23T09:11:59;7.20;99.90
53208;DHT22;39093;52.788;6.940;2024-03-23T09:14:25;7.20;99.90
53208;DHT22;39093;52.788;6.940;2024-03-23T09:16:52;7.20;99.90
53208;DHT22;39093;52.788;6.940;2024-03-23T09:19:18;7.30;99.90
53208;DHT22;39093;52.788;6.940;2024-03-23T09:21:44;7.30;99.90
53208;DHT22;39093;52.788;6.940;2024-03-23T09:24:10;7.40;99.90
53208;DHT22;39093;52.788;6.940;2024-03-23T09:26:36;7.40;99.90
53208;DHT22;39093;52.788;6.940;2024-03-23T09:29:01;7.50;99.90
53208;DHT22;39093;52.788;6.940;2024-03-23T09:31:27;7.60;99.90
53208;DHT22;39093;52.788;6.940;2024-03-23T09:33:53;7.80;99.90
53208;DHT22;39093;52.788;6.940;2024-03-23T09:36:19;7.90;99.90
53208;DHT22;39093;52.788;6.940;2024-03-23T09:38:45;8.10;99.90
53208;DHT22;39093;52.788;6.940;2024-03-23T09:41:11;8.50;99.90
53208;DHT22;39093;52.788;6.940;2024-03-23T09:43:38;9.10;99.90
53208;DHT22;39093;52.788;6.940;2024-03-23T09:46:04;9.50;99.90
53208;DHT22;39093;52.788;6.940;2024-03-23T09:48:31;10.30;99.90
53208;DHT22;39093;52.788;6.940;2024-03-23T09:50:57;10.60;99.90
53208;DHT22;39093;52.788;6.940;2024-03-23T09:53:23;10.90;99.90
53208;DHT22;39093;52.788;6.940;2024-03-23T09:55:49;11.00;99.90
53208;DHT22;39093;52.788;6.940;2024-03-23T09:58:17;11.00;99.90
53208;DHT22;39093;52.788;6.940;2024-03-23T10:00:44;11.00;99.90
53208;DHT22;39093;52.788;6.940;2024-03-23T10:03:10;11.30;99.90
53208;DHT22;39093;52.788;6.940;2024-03-23T10:05:37;11.20;99.90
53208;DHT22;39093;52.788;6.940;2024-03-23T10:10:42;12.80;99.90
53208;DHT22;39093;52.788;6.940;2024-03-23T10:13:08;13.20;99.90
53208;DHT22;39093;52.788;6.940;2024-03-23T10:15:35;13.60;99.90
53208;DHT22;39093;52.788;6.940;2024-03-23T10:18:20;14.00;99.90
53208;DHT22;39093;52.788;6.940;2024-03-23T10:21:14;14.50;99.90
53208;DHT22;39093;52.788;6.940;2024-03-23T10:23:42;14.00;99.90
53208;DHT22;39093;52.788;6.940;2024-03-23T10:26:19;13.20;99.90
53208;DHT22;39093;52.788;6.940;2024-03-23T10:28:56;12.60;99.90
53208;DHT22;39093;52.788;6.940;2024-03-23T10:31:25;12.50;99.90
53208;DHT22;39093;52.788;6.940;2024-03-23T10:33:51;12.10;99.90
53208;DHT22;39093;52.788;6.940;2024-03-23T10:36:24;11.50;99.90
53208;DHT22;39093;52.788;6.940;2024-03-23T10:38:52;11.10;99.90
53208;DHT22;39093;52.788;6.940;2024-03-23T10:41:18;10.60;99.90
53208;DHT22;39093;52.788;6.940;2024-03-23T10:43:48;11.20;99.90
53208;DHT22;39093;52.788;6.940;2024-03-23T10:46:15;12.30;99.90
53208;DHT22;39093;52.788;6.940;2024-03-23T10:48:41;13.20;99.90
53208;DHT22;39093;52.788;6.940;2024-03-23T10:51:10;13.90;99.90
53208;DHT22;39093;52.788;6.940;2024-03-23T10:53:36;14.40;99.90
53208;DHT22;39093;52.788;6.940;2024-03-23T10:56:03;14.90;99.10
53208;DHT22;39093;52.788;6.940;2024-03-23T10:58:39;15.30;97.20
53208;DHT22;39093;52.788;6.940;2024-03-23T11:01:06;15.90;96.70
53208;DHT22;39093;52.788;6.940;2024-03-23T11:03:32;15.90;94.80
53208;DHT22;39093;52.788;6.940;2024-03-23T11:05:59;15.50;95.00
53208;DHT22;39093;52.788;6.940;2024-03-23T11:08:39;15.00;95.60
53208;DHT22;39093;52.788;6.940;2024-03-23T11:13:38;15.30;95.60
53208;DHT22;39093;52.788;6.940;2024-03-23T11:16:17;15.60;94.40
53208;DHT22;39093;52.788;6.940;2024-03-23T11:18:44;16.00;93.40
53208;DHT22;39093;52.788;6.940;2024-03-23T11:21:10;16.50;94.80
53208;DHT22;39093;52.788;6.940;2024-03-23T11:23:36;17.00;93.30
53208;DHT22;39093;52.788;6.940;2024-03-23T11:26:07;17.70;93.80
53208;DHT22;39093;52.788;6.940;2024-03-23T11:28:33;18.10;91.10
53208;DHT22;39093;52.788;6.940;2024-03-23T11:30:59;18.00;88.50
53208;DHT22;39093;52.788;6.940;2024-03-23T11:33:25;17.20;88.40
53208;DHT22;39093;52.788;6.940;2024-03-23T11:35:51;15.80;88.40
53208;DHT22;39093;52.788;6.940;2024-03-23T11:38:18;14.50;90.70
53208;DHT22;39093;52.788;6.940;2024-03-23T11:40:49;13.20;93.50
53208;DHT22;39093;52.788;6.940;2024-03-23T11:43:16;11.90;97.00
53208;DHT22;39093;52.788;6.940;2024-03-23T11:45:44;10.90;99.90
53208;DHT22;39093;52.788;6.940;2024-03-23T11:48:11;10.30;99.90
53208;DHT22;39093;52.788;6.940;2024-03-23T11:50:39;9.60;99.90
53208;DHT22;39093;52.788;6.940;2024-03-23T11:53:20;9.20;99.90
53208;DHT22;39093;52.788;6.940;2024-03-23T11:58:17;8.70;99.90
53208;DHT22;39093;52.788;6.940;2024-03-23T12:00:50;8.30;99.90
53208;DHT22;39093;52.788;6.940;2024-03-23T12:03:17;8.20;99.90
53208;DHT22;39093;52.788;6.940;2024-03-23T12:05:48;8.10;99.90
53208;DHT22;39093;52.788;6.940;2024-03-23T12:08:29;7.90;99.90
53208;DHT22;39093;52.788;6.940;2024-03-23T12:13:36;7.80;99.90
53208;DHT22;39093;52.788;6.940;2024-03-23T12:16:19;7.80;99.90
53208;DHT22;39093;52.788;6.940;2024-03-23T12:18:47;8.00;99.90
53208;DHT22;39093;52.788;6.940;2024-03-23T12:21:15;8.20;99.90
53208;DHT22;39093;52.788;6.940;2024-03-23T12:23:42;8.60;99.90
53208;DHT22;39093;52.788;6.940;2024-03-23T12:26:11;8.60;99.90
53208;DHT22;39093;52.788;6.940;2024-03-23T12:28:38;8.40;99.90
53208;DHT22;39093;52.788;6.940;2024-03-23T12:31:04;8.30;99.90
53208;DHT22;39093;52.788;6.940;2024-03-23T12:33:31;8.00;99.90
53208;DHT22;39093;52.788;6.940;2024-03-23T12:35:57;7.80;99.90
53208;DHT22;39093;52.788;6.940;2024-03-23T12:38:23;7.80;99.90
53208;DHT22;39093;52.788;6.940;2024-03-23T12:40:52;7.90;99.90
53208;DHT22;39093;52.788;6.940;2024-03-23T12:43:18;7.90;99.90
53208;DHT22;39093;52.788;6.940;2024-03-23T12:45:48;7.90;99.90
53208;DHT22;39093;52.788;6.940;2024-03-23T12:48:14;8.10;99.90
53208;DHT22;39093;52.788;6.940;2024-03-23T12:50:40;8.30;99.90
53208;DHT22;39093;52.788;6.940;2024-03-23T12:53:06;8.40;99.90
53208;DHT22;39093;52.788;6.940;2024-03-23T12:55:31;8.50;99.90
53208;DHT22;39093;52.788;6.940;2024-03-23T12:57:57;8.40;99.90
53208;DHT22;39093;52.788;6.940;2024-03-23T13:00:23;8.50;99.90
53208;DHT22;39093;52.788;6.940;2024-03-23T13:02:49;8.80;99.90
53208;DHT22;39093;52.788;6.940;2024-03-23T13:05:15;8.90;99.90
53208;DHT22;39093;52.788;6.940;2024-03-23T13:07:41;8.80;99.90
53208;DHT22;39093;52.788;6.940;2024-03-23T13:10:07;8.60;99.90
53208;DHT22;39093;52.788;6.940;2024-03-23T13:12:34;8.50;99.90
53208;DHT22;39093;52.788;6.940;2024-03-23T13:15:00;9.10;99.90
53208;DHT22;39093;52.788;6.940;2024-03-23T13:17:27;10.50;99.90
53208;DHT22;39093;52.788;6.940;2024-03-23T13:19:54;11.20;99.90
53208;DHT22;39093;52.788;6.940;2024-03-23T13:22:20;11.60;99.90
53208;DHT22;39093;52.788;6.940;2024-03-23T13:24:46;12.40;99.90
53208;DHT22;39093;52.788;6.940;2024-03-23T13:27:12;13.40;99.90
53208;DHT22;39093;52.788;6.940;2024-03-23T13:29:38;14.40;99.90
53208;DHT22;39093;52.788;6.940;2024-03-23T13:32:05;15.30;99.90
53208;DHT22;39093;52.788;6.940;2024-03-23T13:34:31;15.50;98.20
53208;DHT22;39093;52.788;6.940;2024-03-23T13:36:59;14.80;96.00
53208;DHT22;39093;52.788;6.940;2024-03-23T13:39:25;14.10;97.40
53208;DHT22;39093;52.788;6.940;2024-03-23T13:41:53;13.00;98.10
53208;DHT22;39093;52.788;6.940;2024-03-23T13:44:20;12.40;99.90
53208;DHT22;39093;52.788;6.940;2024-03-23T13:46:46;13.20;99.90
53208;DHT22;39093;52.788;6.940;2024-03-23T13:49:30;14.00;99.90
53208;DHT22;39093;52.788;6.940;2024-03-23T13:51:58;14.90;97.40
53208;DHT22;39093;52.788;6.940;2024-03-23T13:54:27;15.40;97.20
53208;DHT22;39093;52.788;6.940;2024-03-23T13:56:56;15.70;94.90
53208;DHT22;39093;52.788;6.940;2024-03-23T13:59:23;15.70;93.20
53208;DHT22;39093;52.788;6.940;2024-03-23T14:01:50;16.40;94.40
53208;DHT22;39093;52.788;6.940;2024-03-23T14:04:19;16.50;94.20
53208;DHT22;39093;52.788;6.940;2024-03-23T14:06:46;16.50;93.10
53208;DHT22;39093;52.788;6.940;2024-03-23T14:09:13;16.70;92.20
53208;DHT22;39093;52.788;6.940;2024-03-23T14:11:40;16.50;91.90
53208;DHT22;39093;52.788;6.940;2024-03-23T14:14:09;16.70;91.10
53208;DHT22;39093;52.788;6.940;2024-03-23T14:16:35;16.90;90.20
53208;DHT22;39093;52.788;6.940;2024-03-23T14:19:01;16.20;88.30
53208;DHT22;39093;52.788;6.940;2024-03-23T14:21:27;15.20;90.50
53208;DHT22;39093;52.788;6.940;2024-03-23T14:23:53;14.40;91.20
53208;DHT22;39093;52.788;6.940;2024-03-23T14:26:20;13.40;92.90
53208;DHT22;39093;52.788;6.940;2024-03-23T14:28:47;12.40;93.90
53208;DHT22;39093;52.788;6.940;2024-03-23T14:31:13;12.40;95.10
53208;DHT22;39093;52.788;6.940;2024-03-23T14:33:39;13.30;95.50
53208;DHT22;39093;52.788;6.940;2024-03-23T14:36:15;14.00;94.00
53208;DHT22;39093;52.788;6.940;2024-03-23T14:38:42;14.50;91.30
53208;DHT22;39093;52.788;6.940;2024-03-23T14:41:08;14.70;91.30
53208;DHT22;39093;52.788;6.940;2024-03-23T14:43:34;14.90;91.10
53208;DHT22;39093;52.788;6.940;2024-03-23T14:46:10;14.30;91.70
53208;DHT22;39093;52.788;6.940;2024-03-23T14:48:37;13.90;91.60
53208;DHT22;39093;52.788;6.940;2024-03-23T14:51:03;13.40;92.70
53208;DHT22;39093;52.788;6.940;2024-03-23T14:53:34;12.70;92.90
53208;DHT22;39093;52.788;6.940;2024-03-23T14:56:01;11.90;94.50
53208;DHT22;39093;52.788;6.940;2024-03-23T14:58:28;11.20;97.20
53208;DHT22;39093;52.788;6.940;2024-03-23T15:01:02;10.70;98.70
53208;DHT22;39093;52.788;6.940;2024-03-23T15:03:29;10.40;99.90
53208;DHT22;39093;52.788;6.940;2024-03-23T15:05:56;10.20;99.90
53208;DHT22;39093;52.788;6.940;2024-03-23T15:08:23;10.20;99.90
53208;DHT22;39093;52.788;6.940;2024-03-23T15:10:49;10.60;99.90
53208;DHT22;39093;52.788;6.940;2024-03-23T15:13:15;11.00;99.90
53208;DHT22;39093;52.788;6.940;2024-03-23T15:15:42;11.90;99.90
53208;DHT22;39093;52.788;6.940;2024-03-23T15:18:12;12.60;99.20
53208;DHT22;39093;52.788;6.940;2024-03-23T15:20:42;12.50;95.80
53208;DHT22;39093;52.788;6.940;2024-03-23T15:23:16;12.30;94.30
53208;DHT22;39093;52.788;6.940;2024-03-23T15:25:42;11.70;94.80
53208;DHT22;39093;52.788;6.940;2024-03-23T15:28:08;11.10;95.60
53208;DHT22;39093;52.788;6.940;2024-03-23T15:30:35;10.70;96.80
53208;DHT22;39093;52.788;6.940;2024-03-23T15:33:01;10.30;98.50
53208;DHT22;39093;52.788;6.940;2024-03-23T15:35:28;10.10;99.40
53208;DHT22;39093;52.788;6.940;2024-03-23T15:37:54;10.30;99.90
53208;DHT22;39093;52.788;6.940;2024-03-23T15:40:20;10.10;99.90
53208;DHT22;39093;52.788;6.940;2024-03-23T15:42:46;10.30;99.90
53208;DHT22;39093;52.788;6.940;2024-03-23T15:45:13;10.50;99.90
53208;DHT22;39093;52.788;6.940;2024-03-23T15:47:39;10.60;99.90
53208;DHT22;39093;52.788;6.940;2024-03-23T15:50:05;10.60;99.90
53208;DHT22;39093;52.788;6.940;2024-03-23T15:52:35;10.50;99.90
53208;DHT22;39093;52.788;6.940;2024-03-23T15:55:03;10.30;99.90
53208;DHT22;39093;52.788;6.940;2024-03-23T15:57:33;10.10;99.90
53208;DHT22;39093;52.788;6.940;2024-03-23T15:59:59;10.10;99.90
53208;DHT22;39093;52.788;6.940;2024-03-23T16:02:25;9.90;99.90
53208;DHT22;39093;52.788;6.940;2024-03-23T16:04:53;9.80;99.90
53208;DHT22;39093;52.788;6.940;2024-03-23T16:07:19;9.70;99.90
53208;DHT22;39093;52.788;6.940;2024-03-23T16:09:45;9.50;99.90
53208;DHT22;39093;52.788;6.940;2024-03-23T16:12:11;9.50;99.90
53208;DHT22;39093;52.788;6.940;2024-03-23T16:14:37;9.50;99.90
53208;DHT22;39093;52.788;6.940;2024-03-23T16:17:03;9.50;99.90
53208;DHT22;39093;52.788;6.940;2024-03-23T16:19:29;9.40;99.90
53208;DHT22;39093;52.788;6.940;2024-03-23T16:21:56;9.10;99.90
53208;DHT22;39093;52.788;6.940;2024-03-23T16:24:22;8.70;99.90
53208;DHT22;39093;52.788;6.940;2024-03-23T16:26:48;8.60;99.90
53208;DHT22;39093;52.788;6.940;2024-03-23T16:29:15;8.50;99.90
53208;DHT22;39093;52.788;6.940;2024-03-23T16:31:41;8.40;99.90
53208;DHT22;39093;52.788;6.940;2024-03-23T16:34:07;8.30;99.90
53208;DHT22;39093;52.788;6.940;2024-03-23T16:36:33;8.30;99.90
53208;DHT22;39093;52.788;6.940;2024-03-23T16:38:59;8.20;99.90
53208;DHT22;39093;52.788;6.940;2024-03-23T16:41:25;8.20;99.90
53208;DHT22;39093;52.788;6.940;2024-03-23T16:43:53;8.20;99.90